sensor_id;sensor_type;location;lat;lon;timestamp;pressure;altitude;pressure_sealevel;temperature
78369;BMP280;71113;43.092;-89.268;2023-11-22T00:01:17;98030.03;;;20.52
78369;BMP280;71113;43.092;-89.268;2023-11-22T00:03:44;98036.66;;;20.46
78369;BMP280;71113;43.092;-89.268;2023-11-22T00:06:09;98036.88;;;20.40
78369;BMP280;71113;43.092;-89.268;2023-11-22T00:08:35;98041.75;;;20.38
78369;BMP280;71113;43.092;-89.268;2023-11-22T00:11:01;98045.94;;;20.39
78369;BMP280;71113;43.092;-89.268;2023-11-22T00:13:28;98046.28;;;20.38
78369;BMP280;71113;43.092;-89.268;2023-11-22T00:15:54;98040.97;;;20.38
78369;BMP280;71113;43.092;-89.268;2023-11-22T00:18:22;98056.88;;;20.38
78369;BMP280;71113;43.092;-89.268;2023-11-22T00:20:48;98053.13;;;20.39
78369;BMP280;71113;43.092;-89.268;2023-11-22T00:23:14;98055.09;;;20.42
78369;BMP280;71113;43.092;-89.268;2023-11-22T00:25:40;98049.03;;;20.41
78369;BMP280;71113;43.092;-89.268;2023-11-22T00:28:06;98053.56;;;20.41
78369;BMP280;71113;43.092;-89.268;2023-11-22T00:30:32;98054.31;;;20.41
78369;BMP280;71113;43.092;-89.268;2023-11-22T00:32:58;98056.63;;;20.43
78369;BMP280;71113;43.092;-89.268;2023-11-22T00:35:24;98047.91;;;20.42
78369;BMP280;71113;43.092;-89.268;2023-11-22T00:37:50;98050.56;;;20.42
78369;BMP280;71113;43.092;-89.268;2023-11-22T00:40:16;98053.22;;;20.42
78369;BMP280;71113;43.092;-89.268;2023-11-22T00:42:42;98057.06;;;20.45
78369;BMP280;71113;43.092;-89.268;2023-11-22T00:45:09;98057.06;;;20.45
78369;BMP280;71113;43.092;-89.268;2023-11-22T00:47:36;98064.69;;;20.47
78369;BMP280;71113;43.092;-89.268;2023-11-22T00:50:03;98068.91;;;20.48
78369;BMP280;71113;43.092;-89.268;2023-11-22T00:52:30;98067.00;;;20.48
78369;BMP280;71113;43.092;-89.268;2023-11-22T00:54:56;98067.00;;;20.48
78369;BMP280;71113;43.092;-89.268;2023-11-22T00:57:22;98079.16;;;20.49
78369;BMP280;71113;43.092;-89.268;2023-11-22T00:59:48;98083.69;;;20.49
78369;BMP280;71113;43.092;-89.268;2023-11-22T01:02:15;98076.97;;;20.51
78369;BMP280;71113;43.092;-89.268;2023-11-22T01:04:41;98081.47;;;20.51
78369;BMP280;71113;43.092;-89.268;2023-11-22T01:07:07;98078.50;;;20.52
78369;BMP280;71113;43.092;-89.268;2023-11-22T01:09:33;98077.75;;;20.52
78369;BMP280;71113;43.092;-89.268;2023-11-22T01:12:00;98089.09;;;20.52
78369;BMP280;71113;43.092;-89.268;2023-11-22T01:14:27;98094.06;;;20.54
78369;BMP280;71113;43.092;-89.268;2023-11-22T01:16:54;98096.69;;;20.54
78369;BMP280;71113;43.092;-89.268;2023-11-22T01:19:20;98095.59;;;20.55
78369;BMP280;71113;43.092;-89.268;2023-11-22T01:21:47;98098.25;;;20.55
78369;BMP280;71113;43.092;-89.268;2023-11-22T01:24:13;98099.34;;;20.54
78369;BMP280;71113;43.092;-89.268;2023-11-22T01:26:40;98102.00;;;20.54
78369;BMP280;71113;43.092;-89.268;2023-11-22T01:29:07;98107.31;;;20.54
78369;BMP280;71113;43.092;-89.268;2023-11-22T01:31:34;98103.53;;;20.55
78369;BMP280;71113;43.092;-89.268;2023-11-22T01:34:00;98110.06;;;20.57
78369;BMP280;71113;43.092;-89.268;2023-11-22T01:36:29;98101.00;;;20.58
78369;BMP280;71113;43.092;-89.268;2023-11-22T01:38:59;98101.00;;;20.58
78369;BMP280;71113;43.092;-89.268;2023-11-22T01:41:25;98109.06;;;20.62
78369;BMP280;71113;43.092;-89.268;2023-11-22T01:43:52;98101.81;;;20.59
78369;BMP280;71113;43.092;-89.268;2023-11-22T01:46:24;98100.91;;;20.55
78369;BMP280;71113;43.092;-89.268;2023-11-22T01:48:53;98101.69;;;20.55
78369;BMP280;71113;43.092;-89.268;2023-11-22T01:51:21;98092.19;;;20.54
78369;BMP280;71113;43.092;-89.268;2023-11-22T01:53:53;98087.66;;;20.55
78369;BMP280;71113;43.092;-89.268;2023-11-22T01:56:25;98094.06;;;20.54
78369;BMP280;71113;43.092;-89.268;2023-11-22T01:58:54;98095.06;;;20.49
78369;BMP280;71113;43.092;-89.268;2023-11-22T02:01:21;98088.97;;;20.49
78369;BMP280;71113;43.092;-89.268;2023-11-22T02:03:47;98092.06;;;20.51
78369;BMP280;71113;43.092;-89.268;2023-11-22T02:06:15;98092.41;;;20.49
78369;BMP280;71113;43.092;-89.268;2023-11-22T02:08:44;98097.47;;;20.54
78369;BMP280;71113;43.092;-89.268;2023-11-22T02:11:10;98097.81;;;20.65
78369;BMP280;71113;43.092;-89.268;2023-11-22T02:13:37;98092.06;;;20.75
78369;BMP280;71113;43.092;-89.268;2023-11-22T02:16:03;98092.38;;;20.86
78369;BMP280;71113;43.092;-89.268;2023-11-22T02:18:30;98093.38;;;20.81
78369;BMP280;71113;43.092;-89.268;2023-11-22T02:20:57;98090.28;;;20.79
78369;BMP280;71113;43.092;-89.268;2023-11-22T02:23:24;98099.78;;;20.80
78369;BMP280;71113;43.092;-89.268;2023-11-22T02:25:51;98100.44;;;20.77
78369;BMP280;71113;43.092;-89.268;2023-11-22T02:28:18;98112.59;;;20.78
78369;BMP280;71113;43.092;-89.268;2023-11-22T02:30:44;98092.50;;;20.77
78369;BMP280;71113;43.092;-89.268;2023-11-22T02:33:12;98096.34;;;20.80
78369;BMP280;71113;43.092;-89.268;2023-11-22T02:35:39;98109.72;;;20.83
78369;BMP280;71113;43.092;-89.268;2023-11-22T02:38:08;98111.25;;;20.84
78369;BMP280;71113;43.092;-89.268;2023-11-22T02:40:34;98106.28;;;20.83
78369;BMP280;71113;43.092;-89.268;2023-11-22T02:43:00;98107.38;;;20.82
78369;BMP280;71113;43.092;-89.268;2023-11-22T02:45:31;98110.47;;;20.84
78369;BMP280;71113;43.092;-89.268;2023-11-22T02:47:58;98111.25;;;20.84
78369;BMP280;71113;43.092;-89.268;2023-11-22T02:50:27;98117.00;;;20.86
78369;BMP280;71113;43.092;-89.268;2023-11-22T02:52:54;98119.66;;;20.86
78369;BMP280;71113;43.092;-89.268;2023-11-22T02:55:23;98117.78;;;20.87
78369;BMP280;71113;43.092;-89.268;2023-11-22T02:57:50;98107.84;;;20.84
78369;BMP280;71113;43.092;-89.268;2023-11-22T03:00:18;98114.69;;;20.85
78369;BMP280;71113;43.092;-89.268;2023-11-22T03:02:46;98111.25;;;20.84
78369;BMP280;71113;43.092;-89.268;2023-11-22T03:05:14;98105.94;;;20.84
78369;BMP280;71113;43.092;-89.268;2023-11-22T03:07:43;98107.50;;;20.85
78369;BMP280;71113;43.092;-89.268;2023-11-22T03:10:10;98108.94;;;20.83
78369;BMP280;71113;43.092;-89.268;2023-11-22T03:12:37;98108.16;;;20.82
78369;BMP280;71113;43.092;-89.268;2023-11-22T03:15:06;98101.31;;;20.81
78369;BMP280;71113;43.092;-89.268;2023-11-22T03:17:33;98116.13;;;20.82
78369;BMP280;71113;43.092;-89.268;2023-11-22T03:20:00;98115.69;;;20.80
78369;BMP280;71113;43.092;-89.268;2023-11-22T03:22:27;98122.88;;;20.80
78369;BMP280;71113;43.092;-89.268;2023-11-22T03:24:57;98122.41;;;20.77
78369;BMP280;71113;43.092;-89.268;2023-11-22T03:27:24;98123.88;;;20.75
78369;BMP280;71113;43.092;-89.268;2023-11-22T03:29:52;98129.16;;;20.75
78369;BMP280;71113;43.092;-89.268;2023-11-22T03:32:19;98132.91;;;20.74
78369;BMP280;71113;43.092;-89.268;2023-11-22T03:34:46;98131.06;;;20.74
78369;BMP280;71113;43.092;-89.268;2023-11-22T03:37:13;98126.81;;;20.73
78369;BMP280;71113;43.092;-89.268;2023-11-22T03:39:39;98136.56;;;20.69
78369;BMP280;71113;43.092;-89.268;2023-11-22T03:42:06;98138.03;;;20.67
78369;BMP280;71113;43.092;-89.268;2023-11-22T03:44:33;98135.25;;;20.63
78369;BMP280;71113;43.092;-89.268;2023-11-22T03:47:00;98137.81;;;20.60
78369;BMP280;71113;43.092;-89.268;2023-11-22T03:49:26;98153.72;;;20.60
78369;BMP280;71113;43.092;-89.268;2023-11-22T03:51:53;98154.81;;;20.59
78369;BMP280;71113;43.092;-89.268;2023-11-22T03:54:20;98145.28;;;20.58
78369;BMP280;71113;43.092;-89.268;2023-11-22T03:56:50;98153.91;;;20.55
78369;BMP280;71113;43.092;-89.268;2023-11-22T03:59:16;98158.75;;;20.53
78369;BMP280;71113;43.092;-89.268;2023-11-22T04:01:42;98155.00;;;20.54
78369;BMP280;71113;43.092;-89.268;2023-11-22T04:04:08;98159.91;;;20.52
78369;BMP280;71113;43.092;-89.268;2023-11-22T04:06:35;98160.97;;;20.51
78369;BMP280;71113;43.092;-89.268;2023-11-22T04:09:02;98150.69;;;20.49
78369;BMP280;71113;43.092;-89.268;2023-11-22T04:11:28;98149.16;;;20.48
78369;BMP280;71113;43.092;-89.268;2023-11-22T04:13:55;98154.00;;;20.46
78369;BMP280;71113;43.092;-89.268;2023-11-22T04:16:21;98151.69;;;20.44
78369;BMP280;71113;43.092;-89.268;2023-11-22T04:18:47;98144.41;;;20.41
78369;BMP280;71113;43.092;-89.268;2023-11-22T04:21:13;98143.19;;;20.39
78369;BMP280;71113;43.092;-89.268;2023-11-22T04:23:39;98151.16;;;20.39
78369;BMP280;71113;43.092;-89.268;2023-11-22T04:26:05;98151.81;;;20.36
78369;BMP280;71113;43.092;-89.268;2023-11-22T04:28:33;98149.47;;;20.34
78369;BMP280;71113;43.092;-89.268;2023-11-22T04:30:59;98150.91;;;20.32
78369;BMP280;71113;43.092;-89.268;2023-11-22T04:33:25;98142.53;;;20.30
78369;BMP280;71113;43.092;-89.268;2023-11-22T04:35:53;98145.50;;;20.28
78369;BMP280;71113;43.092;-89.268;2023-11-22T04:38:20;98152.66;;;20.28
78369;BMP280;71113;43.092;-89.268;2023-11-22T04:40:46;98151.78;;;20.24
78369;BMP280;71113;43.092;-89.268;2023-11-22T04:43:11;98148.72;;;20.22
78369;BMP280;71113;43.092;-89.268;2023-11-22T04:45:37;98149.81;;;20.21
78369;BMP280;71113;43.092;-89.268;2023-11-22T04:48:04;98156.97;;;20.20
78369;BMP280;71113;43.092;-89.268;2023-11-22T04:50:32;98155.00;;;20.17
78369;BMP280;71113;43.092;-89.268;2023-11-22T04:52:58;98157.63;;;20.17
78369;BMP280;71113;43.092;-89.268;2023-11-22T04:55:24;98155.28;;;20.16
78369;BMP280;71113;43.092;-89.268;2023-11-22T04:57:50;98157.38;;;20.10
78369;BMP280;71113;43.092;-89.268;2023-11-22T05:00:16;98163.81;;;20.09
78369;BMP280;71113;43.092;-89.268;2023-11-22T05:02:43;98162.25;;;20.08
78369;BMP280;71113;43.092;-89.268;2023-11-22T05:05:09;98168.63;;;20.07
78369;BMP280;71113;43.092;-89.268;2023-11-22T05:07:38;98165.56;;;20.05
78369;BMP280;71113;43.092;-89.268;2023-11-22T05:10:04;98164.00;;;20.04
78369;BMP280;71113;43.092;-89.268;2023-11-22T05:12:31;98156.72;;;20.01
78369;BMP280;71113;43.092;-89.268;2023-11-22T05:14:58;98163.88;;;20.00
78369;BMP280;71113;43.092;-89.268;2023-11-22T05:17:24;98164.19;;;19.99
78369;BMP280;71113;43.092;-89.268;2023-11-22T05:19:50;98167.19;;;19.97
78369;BMP280;71113;43.092;-89.268;2023-11-22T05:22:16;98173.91;;;19.95
78369;BMP280;71113;43.092;-89.268;2023-11-22T05:24:42;98173.44;;;19.93
78369;BMP280;71113;43.092;-89.268;2023-11-22T05:27:09;98177.94;;;19.92
78369;BMP280;71113;43.092;-89.268;2023-11-22T05:29:36;98180.19;;;19.90
78369;BMP280;71113;43.092;-89.268;2023-11-22T05:32:02;98185.78;;;19.89
78369;BMP280;71113;43.092;-89.268;2023-11-22T05:34:29;98184.25;;;19.88
78369;BMP280;71113;43.092;-89.268;2023-11-22T05:36:55;98189.09;;;19.86
78369;BMP280;71113;43.092;-89.268;2023-11-22T05:39:20;98191.28;;;19.84
78369;BMP280;71113;43.092;-89.268;2023-11-22T05:41:48;98189.75;;;19.83
78369;BMP280;71113;43.092;-89.268;2023-11-22T05:44:14;98193.47;;;19.81
78369;BMP280;71113;43.092;-89.268;2023-11-22T05:46:40;98189.28;;;19.80
78369;BMP280;71113;43.092;-89.268;2023-11-22T05:49:06;98194.16;;;19.78
78369;BMP280;71113;43.092;-89.268;2023-11-22T05:51:33;98192.56;;;19.77
78369;BMP280;71113;43.092;-89.268;2023-11-22T05:54:01;98193.69;;;19.76
78369;BMP280;71113;43.092;-89.268;2023-11-22T05:56:27;98194.00;;;19.75
78369;BMP280;71113;43.092;-89.268;2023-11-22T05:58:54;98184.84;;;19.72
78369;BMP280;71113;43.092;-89.268;2023-11-22T06:01:20;98181.41;;;19.72
78369;BMP280;71113;43.092;-89.268;2023-11-22T06:03:46;98189.69;;;19.70
78369;BMP280;71113;43.092;-89.268;2023-11-22T06:06:14;98189.25;;;19.68
78369;BMP280;71113;43.092;-89.268;2023-11-22T06:08:40;98182.41;;;19.67
78369;BMP280;71113;43.092;-89.268;2023-11-22T06:11:05;98182.41;;;19.67
78369;BMP280;71113;43.092;-89.268;2023-11-22T06:13:32;98176.66;;;19.65
78369;BMP280;71113;43.092;-89.268;2023-11-22T06:15:58;98182.72;;;19.66
78369;BMP280;71113;43.092;-89.268;2023-11-22T06:18:24;98173.84;;;19.62
78369;BMP280;71113;43.092;-89.268;2023-11-22T06:20:56;98167.03;;;19.61
78369;BMP280;71113;43.092;-89.268;2023-11-22T06:23:22;98175.31;;;19.59
78369;BMP280;71113;43.092;-89.268;2023-11-22T06:25:48;98170.78;;;19.60
78369;BMP280;71113;43.092;-89.268;2023-11-22T06:28:14;98174.84;;;19.57
78369;BMP280;71113;43.092;-89.268;2023-11-22T06:30:40;98173.31;;;19.56
78369;BMP280;71113;43.092;-89.268;2023-11-22T06:33:05;98169.13;;;19.55
78369;BMP280;71113;43.092;-89.268;2023-11-22T06:35:32;98165.66;;;19.55
78369;BMP280;71113;43.092;-89.268;2023-11-22T06:37:58;98175.84;;;19.53
78369;BMP280;71113;43.092;-89.268;2023-11-22T06:40:24;98177.72;;;19.52
78369;BMP280;71113;43.092;-89.268;2023-11-22T06:42:50;98176.16;;;19.51
78369;BMP280;71113;43.092;-89.268;2023-11-22T06:45:16;98175.34;;;19.50
78369;BMP280;71113;43.092;-89.268;2023-11-22T06:47:43;98176.47;;;19.49
78369;BMP280;71113;43.092;-89.268;2023-11-22T06:50:12;98185.84;;;19.47
78369;BMP280;71113;43.092;-89.268;2023-11-22T06:52:39;98173.69;;;19.46
78369;BMP280;71113;43.092;-89.268;2023-11-22T06:55:06;98180.84;;;19.45
78369;BMP280;71113;43.092;-89.268;2023-11-22T06:57:35;98171.69;;;19.43
78369;BMP280;71113;43.092;-89.268;2023-11-22T07:00:02;98176.22;;;19.42
78369;BMP280;71113;43.092;-89.268;2023-11-22T07:02:33;98176.53;;;19.41
78369;BMP280;71113;43.092;-89.268;2023-11-22T07:05:01;98167.03;;;19.40
78369;BMP280;71113;43.092;-89.268;2023-11-22T07:07:28;98176.06;;;19.39
78369;BMP280;71113;43.092;-89.268;2023-11-22T07:09:55;98174.53;;;19.38
78369;BMP280;71113;43.092;-89.268;2023-11-22T07:12:24;98178.28;;;19.37
78369;BMP280;71113;43.092;-89.268;2023-11-22T07:14:52;98181.22;;;19.35
78369;BMP280;71113;43.092;-89.268;2023-11-22T07:17:18;98180.44;;;19.35
78369;BMP280;71113;43.092;-89.268;2023-11-22T07:19:44;98184.97;;;19.34
78369;BMP280;71113;43.092;-89.268;2023-11-22T07:22:16;98177.38;;;19.33
78369;BMP280;71113;43.092;-89.268;2023-11-22T07:24:47;98177.38;;;19.33
78369;BMP280;71113;43.092;-89.268;2023-11-22T07:27:25;98184.81;;;19.31
78369;BMP280;71113;43.092;-89.268;2023-11-22T07:29:51;98181.75;;;19.29
78369;BMP280;71113;43.092;-89.268;2023-11-22T07:32:17;98189.69;;;19.29
78369;BMP280;71113;43.092;-89.268;2023-11-22T07:34:45;98197.91;;;19.27
78369;BMP280;71113;43.092;-89.268;2023-11-22T07:37:11;98209.59;;;19.26
78369;BMP280;71113;43.092;-89.268;2023-11-22T07:39:38;98220.19;;;19.26
78369;BMP280;71113;43.092;-89.268;2023-11-22T07:42:05;98218.66;;;19.25
78369;BMP280;71113;43.092;-89.268;2023-11-22T07:44:34;98226.09;;;19.23
78369;BMP280;71113;43.092;-89.268;2023-11-22T07:47:02;98223.03;;;19.21
78369;BMP280;71113;43.092;-89.268;2023-11-22T07:49:28;98233.63;;;19.21
78369;BMP280;71113;43.092;-89.268;2023-11-22T07:51:54;98227.56;;;19.21
78369;BMP280;71113;43.092;-89.268;2023-11-22T07:54:21;98227.56;;;19.21
78369;BMP280;71113;43.092;-89.268;2023-11-22T07:56:51;98228.94;;;19.18
78369;BMP280;71113;43.092;-89.268;2023-11-22T07:59:18;98228.50;;;19.16
78369;BMP280;71113;43.092;-89.268;2023-11-22T08:01:45;98226.16;;;19.14
78369;BMP280;71113;43.092;-89.268;2023-11-22T08:04:13;98233.78;;;19.16
78369;BMP280;71113;43.092;-89.268;2023-11-22T08:06:39;98234.88;;;19.15
78369;BMP280;71113;43.092;-89.268;2023-11-22T08:09:05;98236.75;;;19.14
78369;BMP280;71113;43.092;-89.268;2023-11-22T08:11:34;98226.47;;;19.13
78369;BMP280;71113;43.092;-89.268;2023-11-22T08:14:01;98225.72;;;19.12
78369;BMP280;71113;43.092;-89.268;2023-11-22T08:16:27;98227.56;;;19.12
78369;BMP280;71113;43.092;-89.268;2023-11-22T08:18:53;98226.81;;;19.11
78369;BMP280;71113;43.092;-89.268;2023-11-22T08:21:19;98238.47;;;19.10
78369;BMP280;71113;43.092;-89.268;2023-11-22T08:23:46;98227.41;;;19.08
78369;BMP280;71113;43.092;-89.268;2023-11-22T08:26:15;98230.06;;;19.08
78369;BMP280;71113;43.092;-89.268;2023-11-22T08:28:41;98223.56;;;19.06
78369;BMP280;71113;43.092;-89.268;2023-11-22T08:31:07;98220.16;;;19.05
78369;BMP280;71113;43.092;-89.268;2023-11-22T08:33:37;98224.66;;;19.05
78369;BMP280;71113;43.092;-89.268;2023-11-22T08:36:06;98231.03;;;19.04
78369;BMP280;71113;43.092;-89.268;2023-11-22T08:38:33;98229.50;;;19.03
78369;BMP280;71113;43.092;-89.268;2023-11-22T08:41:06;98225.31;;;19.02
78369;BMP280;71113;43.092;-89.268;2023-11-22T08:43:33;98218.47;;;19.01
78369;BMP280;71113;43.092;-89.268;2023-11-22T08:46:00;98220.31;;;19.00
78369;BMP280;71113;43.092;-89.268;2023-11-22T08:48:26;98227.47;;;19.00
78369;BMP280;71113;43.092;-89.268;2023-11-22T08:50:53;98215.34;;;18.99
78369;BMP280;71113;43.092;-89.268;2023-11-22T08:53:21;98216.47;;;18.98
78369;BMP280;71113;43.092;-89.268;2023-11-22T08:55:50;98216.47;;;18.98
78369;BMP280;71113;43.092;-89.268;2023-11-22T08:58:16;98207.28;;;18.95
78369;BMP280;71113;43.092;-89.268;2023-11-22T09:00:42;98200.13;;;18.96
78369;BMP280;71113;43.092;-89.268;2023-11-22T09:03:11;98197.78;;;18.94
78369;BMP280;71113;43.092;-89.268;2023-11-22T09:05:42;98192.06;;;18.92
78369;BMP280;71113;43.092;-89.268;2023-11-22T09:08:08;98199.22;;;18.92
78369;BMP280;71113;43.092;-89.268;2023-11-22T09:10:39;98193.16;;;18.91
78369;BMP280;71113;43.092;-89.268;2023-11-22T09:13:05;98187.41;;;18.89
78369;BMP280;71113;43.092;-89.268;2023-11-22T09:15:31;98188.97;;;18.90
78369;BMP280;71113;43.092;-89.268;2023-11-22T09:17:59;98176.84;;;18.89
78369;BMP280;71113;43.092;-89.268;2023-11-22T09:20:25;98172.66;;;18.88
78369;BMP280;71113;43.092;-89.268;2023-11-22T09:22:54;98173.75;;;18.87
78369;BMP280;71113;43.092;-89.268;2023-11-22T09:25:22;98171.41;;;18.85
78369;BMP280;71113;43.092;-89.268;2023-11-22T09:27:51;98185.41;;;18.86
78369;BMP280;71113;43.092;-89.268;2023-11-22T09:30:20;98178.53;;;18.85
78369;BMP280;71113;43.092;-89.268;2023-11-22T09:33:09;98173.94;;;18.82
78369;BMP280;71113;43.092;-89.268;2023-11-22T09:35:36;98187.91;;;18.82
78369;BMP280;71113;43.092;-89.268;2023-11-22T09:38:05;98184.50;;;18.82
78369;BMP280;71113;43.092;-89.268;2023-11-22T09:40:42;98188.22;;;18.81
78369;BMP280;71113;43.092;-89.268;2023-11-22T09:43:09;98193.50;;;18.81
78369;BMP280;71113;43.092;-89.268;2023-11-22T09:45:36;98198.34;;;18.79
78369;BMP280;71113;43.092;-89.268;2023-11-22T09:48:12;98199.44;;;18.78
78369;BMP280;71113;43.092;-89.268;2023-11-22T09:50:49;98213.72;;;18.77
78369;BMP280;71113;43.092;-89.268;2023-11-22T09:53:36;98206.88;;;18.76
78369;BMP280;71113;43.092;-89.268;2023-11-22T09:56:07;98209.53;;;18.76
78369;BMP280;71113;43.092;-89.268;2023-11-22T09:58:35;98196.19;;;18.72
78369;BMP280;71113;43.092;-89.268;2023-11-22T10:01:02;98199.91;;;18.71
78369;BMP280;71113;43.092;-89.268;2023-11-22T10:03:33;98188.59;;;18.71
78369;BMP280;71113;43.092;-89.268;2023-11-22T10:05:59;98183.31;;;18.71
78369;BMP280;71113;43.092;-89.268;2023-11-22T10:08:25;98195.75;;;18.70
78369;BMP280;71113;43.092;-89.268;2023-11-22T10:10:54;98196.81;;;18.69
78369;BMP280;71113;43.092;-89.268;2023-11-22T10:13:20;98195.28;;;18.68
78369;BMP280;71113;43.092;-89.268;2023-11-22T10:15:50;98201.31;;;18.69
78369;BMP280;71113;43.092;-89.268;2023-11-22T10:18:16;98213.00;;;18.68
78369;BMP280;71113;43.092;-89.268;2023-11-22T10:20:44;98218.28;;;18.68
78369;BMP280;71113;43.092;-89.268;2023-11-22T10:23:13;98214.41;;;18.65
78369;BMP280;71113;43.092;-89.268;2023-11-22T10:25:47;98220.47;;;18.66
78369;BMP280;71113;43.092;-89.268;2023-11-22T10:28:15;98223.72;;;18.63
78369;BMP280;71113;43.092;-89.268;2023-11-22T10:30:45;98216.88;;;18.62
78369;BMP280;71113;43.092;-89.268;2023-11-22T10:33:11;98229.03;;;18.63
78369;BMP280;71113;43.092;-89.268;2023-11-22T10:35:50;98230.09;;;18.62
78369;BMP280;71113;43.092;-89.268;2023-11-22T10:38:19;98238.00;;;18.62
78369;BMP280;71113;43.092;-89.268;2023-11-22T10:40:46;98237.59;;;18.60
78369;BMP280;71113;43.092;-89.268;2023-11-22T10:43:15;98234.94;;;18.60
78369;BMP280;71113;43.092;-89.268;2023-11-22T10:45:42;98243.16;;;18.58
78369;BMP280;71113;43.092;-89.268;2023-11-22T10:48:16;98238.22;;;18.56
78369;BMP280;71113;43.092;-89.268;2023-11-22T10:50:44;98240.06;;;18.56
78369;BMP280;71113;43.092;-89.268;2023-11-22T10:53:12;98244.88;;;18.54
78369;BMP280;71113;43.092;-89.268;2023-11-22T10:55:47;98242.25;;;18.54
78369;BMP280;71113;43.092;-89.268;2023-11-22T10:58:14;98253.13;;;18.52
78369;BMP280;71113;43.092;-89.268;2023-11-22T11:00:42;98252.81;;;18.54
78369;BMP280;71113;43.092;-89.268;2023-11-22T11:03:14;98262.91;;;18.61
78369;BMP280;71113;43.092;-89.268;2023-11-22T11:05:50;98268.47;;;18.68
78369;BMP280;71113;43.092;-89.268;2023-11-22T11:08:18;98274.38;;;18.73
78369;BMP280;71113;43.092;-89.268;2023-11-22T11:10:46;98276.50;;;18.80
78369;BMP280;71113;43.092;-89.268;2023-11-22T11:13:12;98287.41;;;18.87
78369;BMP280;71113;43.092;-89.268;2023-11-22T11:15:40;98276.34;;;18.94
78369;BMP280;71113;43.092;-89.268;2023-11-22T11:18:07;98282.22;;;18.99
78369;BMP280;71113;43.092;-89.268;2023-11-22T11:20:51;98289.34;;;19.07
78369;BMP280;71113;43.092;-89.268;2023-11-22T11:23:23;98289.16;;;19.12
78369;BMP280;71113;43.092;-89.268;2023-11-22T11:25:54;98296.47;;;19.15
78369;BMP280;71113;43.092;-89.268;2023-11-22T11:28:21;98292.22;;;19.23
78369;BMP280;71113;43.092;-89.268;2023-11-22T11:30:48;98294.22;;;19.26
78369;BMP280;71113;43.092;-89.268;2023-11-22T11:33:27;98289.56;;;19.32
78369;BMP280;71113;43.092;-89.268;2023-11-22T11:35:57;98300.41;;;19.39
78369;BMP280;71113;43.092;-89.268;2023-11-22T11:38:34;98293.69;;;19.41
78369;BMP280;71113;43.092;-89.268;2023-11-22T11:41:12;98291.31;;;19.48
78369;BMP280;71113;43.092;-89.268;2023-11-22T11:43:46;98290.72;;;19.52
78369;BMP280;71113;43.092;-89.268;2023-11-22T11:46:13;98291.91;;;19.54
78369;BMP280;71113;43.092;-89.268;2023-11-22T11:48:48;98286.91;;;19.61
78369;BMP280;71113;43.092;-89.268;2023-11-22T11:51:15;98287.47;;;19.67
78369;BMP280;71113;43.092;-89.268;2023-11-22T11:53:41;98297.88;;;19.72
78369;BMP280;71113;43.092;-89.268;2023-11-22T11:56:08;98301.09;;;19.77
78369;BMP280;71113;43.092;-89.268;2023-11-22T11:58:34;98291.75;;;19.80
78369;BMP280;71113;43.092;-89.268;2023-11-22T12:01:00;98281.28;;;19.84
78369;BMP280;71113;43.092;-89.268;2023-11-22T12:03:28;98284.78;;;19.75
78369;BMP280;71113;43.092;-89.268;2023-11-22T12:05:54;98283.88;;;19.71
78369;BMP280;71113;43.092;-89.268;2023-11-22T12:08:20;98281.09;;;19.68
78369;BMP280;71113;43.092;-89.268;2023-11-22T12:10:46;98289.69;;;19.65
78369;BMP280;71113;43.092;-89.268;2023-11-22T12:13:19;98284.72;;;19.63
78369;BMP280;71113;43.092;-89.268;2023-11-22T12:15:46;98279.88;;;19.65
78369;BMP280;71113;43.092;-89.268;2023-11-22T12:18:12;98274.69;;;19.69
78369;BMP280;71113;43.092;-89.268;2023-11-22T12:20:39;98269.53;;;19.72
78369;BMP280;71113;43.092;-89.268;2023-11-22T12:23:05;98278.19;;;19.81
78369;BMP280;71113;43.092;-89.268;2023-11-22T12:25:32;98284.44;;;19.77
78369;BMP280;71113;43.092;-89.268;2023-11-22T12:27:58;98285.91;;;19.74
78369;BMP280;71113;43.092;-89.268;2023-11-22T12:30:28;98288.84;;;19.73
78369;BMP280;71113;43.092;-89.268;2023-11-22T12:35:29;98282.31;;;19.70
78369;BMP280;71113;43.092;-89.268;2023-11-22T12:37:55;98282.66;;;19.69
78369;BMP280;71113;43.092;-89.268;2023-11-22T12:40:21;98280.44;;;19.71
78369;BMP280;71113;43.092;-89.268;2023-11-22T12:42:51;98283.75;;;19.68
78369;BMP280;71113;43.092;-89.268;2023-11-22T12:45:19;98283.75;;;19.68
78369;BMP280;71113;43.092;-89.268;2023-11-22T12:47:46;98277.66;;;19.67
78369;BMP280;71113;43.092;-89.268;2023-11-22T12:50:32;98271.72;;;19.70
78369;BMP280;71113;43.092;-89.268;2023-11-22T12:53:16;98273.56;;;19.78
78369;BMP280;71113;43.092;-89.268;2023-11-22T12:55:46;98280.66;;;19.87
78369;BMP280;71113;43.092;-89.268;2023-11-22T12:58:21;98283.59;;;19.85
78369;BMP280;71113;43.092;-89.268;2023-11-22T13:00:49;98281.63;;;19.82
78369;BMP280;71113;43.092;-89.268;2023-11-22T13:03:15;98292.50;;;19.80
78369;BMP280;71113;43.092;-89.268;2023-11-22T13:05:42;98296.25;;;19.79
78369;BMP280;71113;43.092;-89.268;2023-11-22T13:08:09;98293.16;;;19.77
78369;BMP280;71113;43.092;-89.268;2023-11-22T13:10:50;98293.97;;;19.78
78369;BMP280;71113;43.092;-89.268;2023-11-22T13:13:20;98288.69;;;19.78
78369;BMP280;71113;43.092;-89.268;2023-11-22T13:15:47;98277.28;;;19.77
78369;BMP280;71113;43.092;-89.268;2023-11-22T13:18:13;98268.28;;;19.78
78369;BMP280;71113;43.092;-89.268;2023-11-22T13:20:38;98265.91;;;19.77
78369;BMP280;71113;43.092;-89.268;2023-11-22T13:23:06;98280.06;;;19.81
78369;BMP280;71113;43.092;-89.268;2023-11-22T13:25:33;98278.44;;;19.89
78369;BMP280;71113;43.092;-89.268;2023-11-22T13:27:59;98287.28;;;19.93
78369;BMP280;71113;43.092;-89.268;2023-11-22T13:30:25;98288.41;;;19.92
78369;BMP280;71113;43.092;-89.268;2023-11-22T13:32:54;98285.31;;;19.90
78369;BMP280;71113;43.092;-89.268;2023-11-22T13:35:27;98282.22;;;19.88
78369;BMP280;71113;43.092;-89.268;2023-11-22T13:38:00;98279.56;;;19.88
78369;BMP280;71113;43.092;-89.268;2023-11-22T13:40:28;98281.44;;;19.87
78369;BMP280;71113;43.092;-89.268;2023-11-22T13:42:57;98282.22;;;19.88
78369;BMP280;71113;43.092;-89.268;2023-11-22T13:45:24;98288.25;;;19.88
78369;BMP280;71113;43.092;-89.268;2023-11-22T13:47:55;98292.44;;;19.89
78369;BMP280;71113;43.092;-89.268;2023-11-22T13:50:26;98302.63;;;19.87